createdAt,value
2018-03-14T00:00:15.451Z,13.00
2018-03-14T00:02:45.708Z,13.43
2018-03-14T00:05:15.796Z,12.20
2018-03-14T00:07:46.120Z,12.83
2018-03-14T00:10:16.198Z,14.27
2018-03-14T00:12:46.534Z,13.85
2018-03-14T00:15:16.731Z,13.90
2018-03-14T00:17:47.649Z,12.50
2018-03-14T00:20:17.387Z,13.30
2018-03-14T00:22:47.499Z,12.77
2018-03-14T00:25:17.759Z,14.32
2018-03-14T00:27:47.813Z,14.17
2018-03-14T00:30:18.002Z,13.98
2018-03-14T00:32:48.207Z,16.75
2018-03-14T00:35:18.272Z,15.30
2018-03-14T00:37:49.262Z,14.38
2018-03-14T00:40:19.004Z,15.23
2018-03-14T00:42:49.019Z,16.33
2018-03-14T00:45:20.033Z,14.75
2018-03-14T00:47:49.960Z,15.40
2018-03-14T00:50:20.871Z,14.90
2018-03-14T00:52:51.306Z,15.40
2018-03-14T00:55:21.110Z,14.33
2018-03-14T00:57:51.007Z,15.52
2018-03-14T01:00:21.979Z,15.03
2018-03-14T01:02:51.922Z,15.00
2018-03-14T01:05:21.638Z,14.90
2018-03-14T01:07:52.093Z,14.30
2018-03-14T01:10:21.842Z,15.80
2018-03-14T01:12:51.742Z,13.43
2018-03-14T01:15:22.640Z,14.60
2018-03-14T01:17:52.382Z,14.77
2018-03-14T01:20:22.308Z,13.70
2018-03-14T01:22:52.806Z,13.73
2018-03-14T01:25:23.682Z,13.95
2018-03-14T01:27:55.004Z,12.93
2018-03-14T01:30:25.515Z,13.00
2018-03-14T01:32:55.343Z,14.80
2018-03-14T01:35:25.055Z,13.33
2018-03-14T01:37:55.840Z,13.33
2018-03-14T01:40:28.825Z,14.10
2018-03-14T01:42:59.511Z,13.50
2018-03-14T01:45:30.045Z,15.40
2018-03-14T01:48:00.592Z,13.63
2018-03-14T01:50:30.395Z,16.13
2018-03-14T01:53:11.717Z,15.57
2018-03-14T01:55:41.509Z,15.52
2018-03-14T01:58:11.280Z,15.50
2018-03-14T02:00:41.022Z,16.90
2018-03-14T02:03:10.830Z,14.93
2018-03-14T02:05:40.753Z,15.40
2018-03-14T02:08:10.491Z,15.37
2018-03-14T02:10:40.448Z,17.03
2018-03-14T02:13:10.908Z,15.97
2018-03-14T02:15:40.602Z,18.03
2018-03-14T02:18:10.306Z,17.10
2018-03-14T02:20:40.837Z,18.57
2018-03-14T02:23:10.549Z,20.93
2018-03-14T02:25:41.077Z,19.50
2018-03-14T02:28:10.790Z,21.20
2018-03-14T02:30:41.488Z,23.50
2018-03-14T02:33:11.386Z,22.87
2018-03-14T02:35:41.154Z,23.47
2018-03-14T02:38:11.123Z,21.13
2018-03-14T02:40:40.863Z,22.10
2018-03-14T02:43:11.582Z,21.10
2018-03-14T02:45:41.329Z,21.37
2018-03-14T02:48:11.006Z,22.23
2018-03-14T02:50:40.745Z,22.67
2018-03-14T02:53:11.363Z,21.07
2018-03-14T02:55:41.858Z,21.70
2018-03-14T02:58:11.606Z,20.70
2018-03-14T03:00:42.846Z,21.23
2018-03-14T03:03:13.346Z,22.13
2018-03-14T03:05:43.131Z,20.90
2018-03-14T03:08:12.881Z,20.57
2018-03-14T03:10:43.508Z,22.83
2018-03-14T03:13:13.342Z,23.53
2018-03-14T03:15:43.239Z,22.60
2018-03-14T03:18:12.965Z,23.90
2018-03-14T03:20:43.490Z,24.23
2018-03-14T03:23:14.127Z,22.30
2018-03-14T03:25:43.870Z,23.17
2018-03-14T03:28:13.649Z,22.30
2018-03-14T03:30:43.603Z,23.40
2018-03-14T03:33:14.383Z,22.40
2018-03-14T03:35:44.063Z,23.90
2018-03-14T03:38:14.930Z,24.60
2018-03-14T03:40:45.066Z,21.30
2018-03-14T03:43:14.773Z,19.20
2018-03-14T03:45:45.472Z,20.52
2018-03-14T03:48:15.179Z,17.90
2018-03-14T03:50:45.069Z,18.20
2018-03-14T03:53:16.174Z,18.80
2018-03-14T03:55:45.822Z,18.30
2018-03-14T03:58:15.839Z,18.73
2018-03-14T04:00:46.122Z,17.70
2018-03-14T04:03:17.066Z,17.63
2018-03-14T04:05:47.607Z,18.93
2018-03-14T04:08:17.341Z,20.03
2018-03-14T04:10:47.487Z,18.73
2018-03-14T04:13:17.162Z,20.10
2018-03-14T04:15:47.487Z,19.62
2018-03-14T04:18:17.662Z,19.43
2018-03-14T04:20:47.822Z,19.12
2018-03-14T04:23:18.099Z,18.87
2018-03-14T04:25:49.050Z,19.07
2018-03-14T04:28:18.835Z,18.90
2018-03-14T04:30:49.385Z,19.13
2018-03-14T04:33:19.799Z,19.33
2018-03-14T04:35:49.515Z,18.77
2018-03-14T04:38:19.150Z,20.60
2018-03-14T04:40:49.568Z,19.60
2018-03-14T04:43:19.622Z,19.00
2018-03-14T04:45:50.574Z,20.37
2018-03-14T04:48:20.796Z,20.47
2018-03-14T04:50:50.658Z,18.83
2018-03-14T04:53:21.473Z,19.30
2018-03-14T04:55:51.576Z,20.20
2018-03-14T04:58:21.301Z,19.27
2018-03-14T05:00:51.846Z,20.20
2018-03-14T05:03:21.560Z,19.77
2018-03-14T05:05:51.800Z,19.57
2018-03-14T05:08:21.786Z,19.50
2018-03-14T05:10:52.741Z,20.10
2018-03-14T05:13:23.238Z,19.80
2018-03-14T05:15:52.978Z,20.30
2018-03-14T05:18:23.454Z,21.87
2018-03-14T05:20:54.171Z,19.50
2018-03-14T05:23:23.908Z,20.63
2018-03-14T05:25:53.578Z,20.57
2018-03-14T05:28:23.427Z,20.40
2018-03-14T05:30:53.829Z,20.08
2018-03-14T05:33:24.737Z,19.67
2018-03-14T05:35:54.487Z,19.60
2018-03-14T05:38:25.164Z,20.17
2018-03-14T05:40:55.808Z,20.50
2018-03-14T05:43:25.509Z,19.40
2018-03-14T05:45:55.234Z,19.50
2018-03-14T05:48:25.250Z,19.00
2018-03-14T05:50:55.398Z,20.37
2018-03-14T05:53:26.472Z,20.33
2018-03-14T05:55:56.178Z,21.57
2018-03-14T05:58:26.018Z,23.80
2018-03-14T06:00:56.180Z,23.47
2018-03-14T06:03:26.375Z,22.87
2018-03-14T06:05:56.697Z,22.10
2018-03-14T06:08:26.814Z,24.40
2018-03-14T06:10:57.038Z,24.07
2018-03-14T06:13:28.009Z,21.30
2018-03-14T06:15:57.737Z,22.80
2018-03-14T06:18:28.407Z,22.10
2018-03-14T06:20:58.097Z,22.70
2018-03-14T06:23:28.140Z,22.00
2018-03-14T06:25:58.471Z,21.92
2018-03-14T06:28:28.692Z,23.50
2018-03-14T06:30:58.917Z,24.95
2018-03-14T06:33:29.111Z,24.13
2018-03-14T06:35:59.188Z,23.50
2018-03-14T06:38:30.193Z,25.37
2018-03-14T06:40:59.916Z,23.77
2018-03-14T06:43:29.838Z,25.77
2018-03-14T06:46:00.115Z,24.37
2018-03-14T06:48:30.894Z,23.57
2018-03-14T06:51:02.899Z,22.63
2018-03-14T06:53:32.661Z,25.00
2018-03-14T06:56:03.870Z,25.03
2018-03-14T06:58:44.832Z,23.30
2018-03-14T07:01:24.028Z,24.30
2018-03-14T07:04:04.984Z,24.30
2018-03-14T07:06:35.704Z,24.17
2018-03-14T07:09:06.550Z,22.27
2018-03-14T07:11:37.149Z,23.90
2018-03-14T07:14:06.808Z,23.47
2018-03-14T07:16:36.539Z,22.53
2018-03-14T07:19:06.335Z,23.63
2018-03-14T07:21:36.051Z,22.60
2018-03-14T07:24:05.793Z,23.93
2018-03-14T07:26:35.555Z,23.00
2018-03-14T07:29:05.351Z,23.43
2018-03-14T07:31:35.829Z,24.60
2018-03-14T07:34:06.002Z,23.73
2018-03-14T07:36:36.424Z,22.77
2018-03-14T07:39:06.542Z,21.70
2018-03-14T07:41:36.193Z,21.83
2018-03-14T07:44:05.916Z,24.10
2018-03-14T07:46:35.667Z,23.40
2018-03-14T07:49:05.411Z,23.70
2018-03-14T07:51:36.028Z,22.98
2018-03-14T07:54:06.069Z,22.50
2018-03-14T07:56:36.214Z,25.40
2018-03-14T07:59:06.732Z,23.90
2018-03-14T08:01:37.584Z,22.67
2018-03-14T08:04:07.337Z,23.07
2018-03-14T08:06:37.277Z,24.10
2018-03-14T08:09:07.546Z,24.90
2018-03-14T08:11:38.418Z,24.17
2018-03-14T08:14:09.018Z,23.53
2018-03-14T08:16:39.473Z,24.27
2018-03-14T08:19:09.956Z,23.27
2018-03-14T08:21:39.903Z,23.87
2018-03-14T08:24:09.777Z,23.70
2018-03-14T08:26:39.490Z,25.10
2018-03-14T08:29:12.218Z,24.97
2018-03-14T08:31:42.724Z,23.20
2018-03-14T08:34:12.759Z,23.02
2018-03-14T08:36:43.363Z,23.92
2018-03-14T08:39:13.039Z,23.30
2018-03-14T08:41:42.746Z,24.70
2018-03-14T08:44:12.616Z,23.60
2018-03-14T08:46:43.095Z,22.53
2018-03-14T08:49:12.851Z,23.10
2018-03-14T08:51:42.611Z,22.00
2018-03-14T08:54:12.377Z,23.57
2018-03-14T08:56:42.829Z,23.27
2018-03-14T08:59:12.619Z,23.52
2018-03-14T09:01:43.281Z,23.00
2018-03-14T09:04:12.939Z,21.40
2018-03-14T09:06:42.691Z,21.20
2018-03-14T09:09:12.458Z,22.50
2018-03-14T09:11:42.460Z,20.87
2018-03-14T09:14:12.715Z,21.80
2018-03-14T09:16:43.135Z,19.93
2018-03-14T09:19:12.982Z,21.33
2018-03-14T09:21:43.273Z,20.63
2018-03-14T09:24:13.518Z,20.93
2018-03-14T09:26:44.042Z,20.12
2018-03-14T09:29:16.089Z,19.90
2018-03-14T09:31:45.826Z,20.17
2018-03-14T09:34:16.277Z,20.00
2018-03-14T09:36:46.018Z,20.57
2018-03-14T09:39:15.835Z,20.60
2018-03-14T09:41:45.602Z,21.13
2018-03-14T09:44:15.301Z,20.20
2018-03-14T09:46:45.443Z,20.90
2018-03-14T09:49:15.794Z,20.47
2018-03-14T09:51:46.259Z,20.58
2018-03-14T09:54:16.316Z,18.80
2018-03-14T09:56:47.127Z,20.30
2018-03-14T09:59:16.960Z,20.37
2018-03-14T10:01:47.086Z,21.42
2018-03-14T10:04:17.135Z,19.50
2018-03-14T10:06:46.888Z,20.43
2018-03-14T10:09:17.827Z,20.67
2018-03-14T10:11:47.646Z,19.48
2018-03-14T10:14:17.826Z,21.23
2018-03-14T10:16:49.185Z,20.52
2018-03-14T10:19:19.706Z,20.30
2018-03-14T10:21:49.468Z,20.03
2018-03-14T10:24:19.953Z,20.83
2018-03-14T10:26:50.523Z,22.00
2018-03-14T10:29:21.188Z,20.87
2018-03-14T10:31:50.924Z,22.17
2018-03-14T10:34:21.433Z,20.23
2018-03-14T10:36:51.143Z,22.17
2018-03-14T10:39:20.838Z,23.57
2018-03-14T10:41:50.558Z,22.97
2018-03-14T10:44:21.363Z,24.85
2018-03-14T10:46:51.972Z,23.20
2018-03-14T10:49:22.833Z,22.40
2018-03-14T10:51:52.622Z,25.27
2018-03-14T10:54:22.357Z,22.47
2018-03-14T10:56:52.142Z,24.60
2018-03-14T10:59:23.305Z,23.93
2018-03-14T11:01:53.526Z,23.62
2018-03-14T11:04:23.346Z,25.10
2018-03-14T11:06:53.027Z,22.97
2018-03-14T11:09:22.755Z,23.47
2018-03-14T11:11:52.864Z,25.10
2018-03-14T11:14:22.967Z,24.73
2018-03-14T11:16:53.933Z,24.10
2018-03-14T11:19:23.647Z,27.80
2018-03-14T11:21:53.687Z,26.10
2018-03-14T11:24:24.766Z,25.45
2018-03-14T11:26:55.391Z,25.77
2018-03-14T11:29:25.902Z,25.77
2018-03-14T11:31:55.671Z,24.90
2018-03-14T11:34:25.480Z,26.20
2018-03-14T11:36:55.572Z,25.30
2018-03-14T11:39:26.385Z,23.37
2018-03-14T11:41:56.388Z,21.70
2018-03-14T11:44:26.062Z,25.53
2018-03-14T11:46:56.029Z,22.17
2018-03-14T11:49:26.969Z,23.00
2018-03-14T11:51:57.056Z,22.45
2018-03-14T11:54:26.905Z,22.65
2018-03-14T11:56:57.082Z,23.60
2018-03-14T11:59:28.203Z,22.73
2018-03-14T12:01:58.977Z,21.53
2018-03-14T12:04:28.946Z,22.13
2018-03-14T12:06:58.731Z,21.90
2018-03-14T12:09:28.777Z,21.60
2018-03-14T12:11:58.773Z,21.33
2018-03-14T12:14:31.149Z,21.67
2018-03-14T12:17:00.849Z,22.17
2018-03-14T12:19:31.541Z,19.30
2018-03-14T12:22:01.730Z,20.03
2018-03-14T12:24:31.687Z,21.87
2018-03-14T12:27:04.059Z,21.10
2018-03-14T12:29:34.663Z,19.58
2018-03-14T12:32:04.377Z,21.10
2018-03-14T12:34:40.658Z,19.93
2018-03-14T12:37:10.695Z,19.92
2018-03-14T12:39:40.722Z,19.23
2018-03-14T12:42:10.952Z,20.10
2018-03-14T12:44:41.197Z,19.92
2018-03-14T12:47:12.165Z,19.27
2018-03-14T12:49:43.306Z,19.23
2018-03-14T12:52:13.838Z,19.10
2018-03-14T12:54:43.699Z,19.73
2018-03-14T12:57:14.278Z,19.43
2018-03-14T12:59:44.862Z,19.48
2018-03-14T13:02:15.401Z,18.35
2018-03-14T13:04:45.137Z,18.00
2018-03-14T13:07:15.929Z,17.12
2018-03-14T13:09:46.857Z,17.93
2018-03-14T13:12:16.555Z,17.20
2018-03-14T13:14:46.325Z,17.00
2018-03-14T13:17:16.123Z,16.70
2018-03-14T13:19:46.585Z,17.67
2018-03-14T13:22:16.381Z,16.33
2018-03-14T13:24:46.130Z,16.50
2018-03-14T13:27:16.308Z,17.40
2018-03-14T13:32:19.899Z,16.80
2018-03-14T13:34:50.428Z,16.85
2018-03-14T13:37:21.279Z,18.83
2018-03-14T13:39:51.136Z,16.87
2018-03-14T13:42:20.908Z,17.10
2018-03-14T13:44:50.677Z,16.67
2018-03-14T13:47:20.527Z,15.87
2018-03-14T13:49:51.821Z,16.17
2018-03-14T13:52:21.742Z,16.70
2018-03-14T13:54:51.584Z,15.90
2018-03-14T13:57:22.045Z,15.50
2018-03-14T13:59:51.734Z,15.03
2018-03-14T14:02:22.369Z,16.80
2018-03-14T14:04:52.899Z,17.25
2018-03-14T14:07:23.414Z,15.33
2018-03-14T14:09:54.038Z,16.40
2018-03-14T14:12:24.611Z,17.37
2018-03-14T14:14:54.584Z,17.13
2018-03-14T14:17:25.110Z,17.80
2018-03-14T14:19:55.824Z,18.57
2018-03-14T14:22:25.518Z,20.48
2018-03-14T14:24:55.282Z,20.47
2018-03-14T14:27:25.074Z,19.23
2018-03-14T14:29:56.011Z,19.00
2018-03-14T14:32:26.477Z,19.40
2018-03-14T14:34:56.228Z,17.53
2018-03-14T14:37:26.652Z,16.60
2018-03-14T14:39:56.391Z,17.70
2018-03-14T14:42:26.941Z,17.43
2018-03-14T14:44:56.711Z,17.63
2018-03-14T14:47:26.498Z,16.83
2018-03-14T14:49:57.812Z,17.47
2018-03-14T14:52:27.604Z,18.40
2018-03-14T14:54:58.795Z,18.20
2018-03-14T14:57:28.555Z,17.47
2018-03-14T14:59:58.248Z,17.73
2018-03-14T15:02:27.974Z,16.33
2018-03-14T15:04:57.735Z,17.33
2018-03-14T15:07:27.534Z,16.73
2018-03-14T15:09:57.319Z,16.20
2018-03-14T15:12:28.462Z,15.53
2018-03-14T15:14:58.939Z,16.60
2018-03-14T15:17:28.678Z,17.40
2018-03-14T15:19:58.347Z,18.50
2018-03-14T15:22:28.090Z,17.93
2018-03-14T15:24:57.846Z,16.47
2018-03-14T15:27:27.619Z,18.30
2018-03-14T15:29:57.366Z,18.47
2018-03-14T15:32:27.085Z,18.67
2018-03-14T15:34:56.780Z,18.90
2018-03-14T15:37:27.502Z,15.87
2018-03-14T15:39:58.022Z,17.62
2018-03-14T15:42:27.707Z,17.73
2018-03-14T15:44:57.498Z,17.50
2018-03-14T15:47:27.255Z,16.48
2018-03-14T15:49:56.971Z,16.90
2018-03-14T15:52:27.118Z,16.33
2018-03-14T15:54:57.335Z,16.30
2018-03-14T15:57:28.325Z,15.67
2018-03-14T15:59:58.158Z,16.23
2018-03-14T16:02:27.922Z,16.02
2018-03-14T16:04:58.215Z,16.20
2018-03-14T16:07:29.113Z,15.83
2018-03-14T16:09:58.894Z,13.80
2018-03-14T16:12:28.752Z,15.30
2018-03-14T16:14:58.979Z,15.20
2018-03-14T16:17:29.123Z,14.90
2018-03-14T16:20:00.172Z,14.80
2018-03-14T16:22:29.866Z,14.50
2018-03-14T16:24:59.770Z,13.80
2018-03-14T16:27:30.072Z,13.93
2018-03-14T16:30:00.677Z,13.20
2018-03-14T16:32:30.538Z,13.15
2018-03-14T16:35:01.734Z,12.20
2018-03-14T16:37:31.474Z,12.52
2018-03-14T16:40:01.195Z,12.80
2018-03-14T16:42:32.111Z,11.80
2018-03-14T16:45:02.226Z,11.43
2018-03-14T16:47:32.322Z,12.00
2018-03-14T16:50:02.048Z,12.10
2018-03-14T16:52:32.939Z,12.27
2018-03-14T16:55:02.701Z,13.93
2018-03-14T16:57:33.439Z,13.43
2018-03-14T17:00:03.473Z,13.17
2018-03-14T17:02:33.190Z,12.90
2018-03-14T17:05:03.358Z,11.97
2018-03-14T17:07:33.431Z,11.65
2018-03-14T17:10:03.931Z,11.07
2018-03-14T17:12:33.965Z,13.15
2018-03-14T17:15:04.305Z,12.20
2018-03-14T17:17:34.521Z,11.77
2018-03-14T17:20:04.581Z,13.23
2018-03-14T17:22:34.902Z,12.35
2018-03-14T17:25:05.115Z,13.32
2018-03-14T17:27:35.340Z,14.40
2018-03-14T17:30:05.552Z,13.80
2018-03-14T17:32:36.394Z,15.33
2018-03-14T17:35:06.134Z,13.60
2018-03-14T17:37:36.197Z,14.00
2018-03-14T17:40:06.413Z,13.50
2018-03-14T17:42:36.661Z,13.35
2018-03-14T17:45:06.675Z,14.10
2018-03-14T17:47:37.816Z,13.23
2018-03-14T17:50:07.530Z,13.93
2018-03-14T17:52:37.427Z,13.53
2018-03-14T17:55:07.695Z,14.25
2018-03-14T17:57:37.846Z,14.97
2018-03-14T18:00:08.168Z,13.47
2018-03-14T18:02:38.417Z,14.13
2018-03-14T18:05:08.822Z,14.25
2018-03-14T18:07:38.871Z,13.48
2018-03-14T18:10:09.054Z,14.60
2018-03-14T18:15:13.774Z,12.77
2018-03-14T18:17:43.453Z,14.67
2018-03-14T18:20:13.366Z,14.50
2018-03-14T18:22:43.075Z,14.30
2018-03-14T18:25:12.778Z,14.20
2018-03-14T18:27:43.555Z,14.40
2018-03-14T18:30:13.307Z,13.87
2018-03-14T18:32:43.855Z,14.80
2018-03-14T18:35:13.604Z,13.93
2018-03-14T18:37:43.326Z,13.40
2018-03-14T18:40:13.057Z,14.20
2018-03-14T18:42:42.797Z,14.03
2018-03-14T18:45:12.504Z,13.17
2018-03-14T18:47:44.819Z,13.83
2018-03-14T18:50:14.531Z,13.40
2018-03-14T18:52:44.302Z,13.40
2018-03-14T18:55:14.298Z,14.47
2018-03-14T18:57:44.714Z,15.10
2018-03-14T19:00:14.495Z,13.83
2018-03-14T19:02:44.265Z,14.30
2018-03-14T19:05:14.037Z,13.50
2018-03-14T19:07:43.838Z,13.27
2018-03-14T19:10:14.698Z,14.80
2018-03-14T19:12:44.440Z,13.57
2018-03-14T19:15:14.294Z,13.47
2018-03-14T19:17:45.419Z,15.10
2018-03-14T19:20:15.255Z,12.77
2018-03-14T19:22:45.064Z,13.67
2018-03-14T19:25:15.317Z,13.50
2018-03-14T19:27:46.251Z,14.27
2018-03-14T19:30:16.732Z,14.33
2018-03-14T19:32:52.083Z,12.47
2018-03-14T19:35:21.861Z,14.70
2018-03-14T19:37:51.757Z,14.20
2018-03-14T19:40:22.297Z,14.33
2018-03-14T19:42:52.088Z,13.40
2018-03-14T19:45:22.644Z,13.47
2018-03-14T19:47:52.335Z,12.43
2018-03-14T19:50:22.929Z,12.55
2018-03-14T19:52:52.760Z,13.93
2018-03-14T19:55:23.275Z,11.90
2018-03-14T19:57:52.993Z,13.27
2018-03-14T20:00:22.706Z,13.40
2018-03-14T20:02:52.474Z,13.83
2018-03-14T20:05:22.195Z,13.83
2018-03-14T20:07:51.941Z,13.00
2018-03-14T20:10:21.819Z,13.30
2018-03-14T20:12:51.579Z,13.80
2018-03-14T20:15:22.287Z,13.27
2018-03-14T20:17:51.982Z,14.07
2018-03-14T20:20:21.733Z,15.37
2018-03-14T20:22:51.453Z,14.37
2018-03-14T20:25:21.946Z,14.23
2018-03-14T20:27:51.674Z,13.90
2018-03-14T20:30:21.331Z,14.80
2018-03-14T20:32:51.004Z,14.90
2018-03-14T20:35:22.022Z,15.98
2018-03-14T20:37:51.738Z,15.10
2018-03-14T20:40:22.255Z,16.20
2018-03-14T20:42:52.771Z,16.10
2018-03-14T20:45:22.836Z,16.33
2018-03-14T20:47:53.367Z,14.93
2018-03-14T20:50:23.886Z,16.23
2018-03-14T20:52:54.544Z,14.80
2018-03-14T20:55:24.243Z,15.43
2018-03-14T20:57:54.754Z,16.03
2018-03-14T21:00:25.308Z,15.93
2018-03-14T21:02:55.266Z,16.53
2018-03-14T21:05:24.940Z,16.60
2018-03-14T21:07:54.610Z,17.02
2018-03-14T21:10:25.102Z,15.90
2018-03-14T21:12:54.861Z,16.40
2018-03-14T21:15:25.796Z,17.15
2018-03-14T21:17:56.913Z,16.63
2018-03-14T21:20:26.645Z,16.93
2018-03-14T21:22:57.123Z,15.48
2018-03-14T21:25:26.947Z,16.10
2018-03-14T21:27:56.682Z,16.33
2018-03-14T21:30:27.149Z,16.45
2018-03-14T21:32:56.831Z,16.90
2018-03-14T21:35:27.356Z,15.90
2018-03-14T21:37:57.101Z,16.67
2018-03-14T21:40:28.121Z,16.10
2018-03-14T21:42:58.585Z,16.47
2018-03-14T21:45:28.407Z,15.85
2018-03-14T21:47:58.105Z,16.43
2018-03-14T21:50:28.931Z,16.00
2018-03-14T21:52:58.751Z,17.37
2018-03-14T21:55:40.968Z,17.37
2018-03-14T21:58:10.745Z,15.60
2018-03-14T22:00:41.235Z,16.03
2018-03-14T22:03:11.876Z,16.10
2018-03-14T22:05:41.599Z,15.27
2018-03-14T22:08:12.235Z,15.73
2018-03-14T22:10:42.965Z,17.37
2018-03-14T22:13:13.623Z,17.17
2018-03-14T22:15:43.378Z,16.30
2018-03-14T22:18:13.107Z,15.23
2018-03-14T22:20:42.783Z,15.70
2018-03-14T22:23:12.493Z,15.07
2018-03-14T22:25:42.220Z,15.67
2018-03-14T22:28:11.938Z,15.03
2018-03-14T22:30:41.728Z,14.93
2018-03-14T22:33:11.559Z,15.33
2018-03-14T22:35:42.393Z,14.73
2018-03-14T22:38:12.093Z,15.70
2018-03-14T22:40:42.622Z,13.87
2018-03-14T22:43:12.372Z,14.07
2018-03-14T22:45:43.075Z,15.40
2018-03-14T22:48:12.816Z,15.30
2018-03-14T22:50:43.959Z,13.60
2018-03-14T22:53:14.811Z,12.90
2018-03-14T22:55:44.546Z,14.05
2018-03-14T22:58:14.710Z,13.30
2018-03-14T23:00:46.158Z,13.85
2018-03-14T23:03:15.899Z,14.18
2018-03-14T23:05:45.858Z,14.40
2018-03-14T23:08:15.577Z,15.33
2018-03-14T23:10:45.409Z,14.90
2018-03-14T23:13:15.901Z,14.90
2018-03-14T23:15:45.655Z,14.40
2018-03-14T23:18:15.395Z,14.03
2018-03-14T23:20:45.999Z,13.77
2018-03-14T23:23:16.458Z,14.40
2018-03-14T23:25:46.644Z,14.38
2018-03-14T23:28:17.235Z,14.10
2018-03-14T23:30:46.985Z,14.63
2018-03-14T23:33:17.458Z,14.00
2018-03-14T23:35:47.196Z,13.90
2018-03-14T23:38:16.988Z,14.20
2018-03-14T23:40:47.730Z,14.60
2018-03-14T23:43:17.518Z,13.83
2018-03-14T23:45:48.679Z,15.25
2018-03-14T23:48:18.441Z,14.20
2018-03-14T23:50:48.952Z,15.13
2018-03-14T23:53:18.664Z,14.97
2018-03-14T23:55:48.387Z,14.93
2018-03-14T23:58:18.642Z,14.90
